createdAt,value
2019-04-25T00:01:44.776Z,77.76
2019-04-25T00:02:44.816Z,78.14
2019-04-25T00:04:38.675Z,78.43
2019-04-25T00:05:37.509Z,78.91
2019-04-25T00:07:31.265Z,79.87
2019-04-25T00:08:31.210Z,80.06
2019-04-25T00:10:23.345Z,80.54
2019-04-25T00:11:23.359Z,80.25
2019-04-25T00:13:16.278Z,80.54
2019-04-25T00:14:16.289Z,80.16
2019-04-25T00:16:09.199Z,79.68
2019-04-25T00:17:09.208Z,80.02
2019-04-25T00:19:02.117Z,80.11
2019-04-25T00:20:02.133Z,80.02
2019-04-25T00:21:55.047Z,79.93
2019-04-25T00:22:55.054Z,79.83
2019-04-25T00:24:47.971Z,79.83
2019-04-25T00:25:48.353Z,79.93
2019-04-25T00:27:43.260Z,79.93
2019-04-25T00:28:43.534Z,80.11
2019-04-25T00:30:33.808Z,80.11
2019-04-25T00:31:33.823Z,79.79
2019-04-25T00:33:26.741Z,80.30
2019-04-25T00:34:26.747Z,80.27
2019-04-25T00:36:19.660Z,80.74
2019-04-25T00:37:19.667Z,80.84
2019-04-25T00:39:12.575Z,82.18
2019-04-25T00:40:13.561Z,82.18
2019-04-25T00:42:05.505Z,82.52
2019-04-25T00:43:05.510Z,82.42
2019-04-25T00:44:58.421Z,83.00
2019-04-25T00:45:58.433Z,83.47
2019-04-25T00:47:51.919Z,83.57
2019-04-25T00:48:51.784Z,83.57
2019-04-25T00:50:44.579Z,84.33
2019-04-25T00:51:44.547Z,84.14
2019-04-25T00:53:37.190Z,84.29
2019-04-25T00:54:37.194Z,84.67
2019-04-25T00:56:30.108Z,85.44
2019-04-25T00:57:30.112Z,85.44
2019-04-25T00:59:23.021Z,85.82
2019-04-25T01:00:23.036Z,86.49
2019-04-25T01:02:16.093Z,86.30
2019-04-25T01:03:16.098Z,86.10
2019-04-25T01:05:09.020Z,86.49
2019-04-25T01:06:09.024Z,87.25
2019-04-25T01:08:02.186Z,86.92
2019-04-25T01:09:01.944Z,87.97
2019-04-25T01:10:54.861Z,87.21
2019-04-25T01:11:54.863Z,86.63
2019-04-25T01:13:48.241Z,87.11
2019-04-25T01:14:48.408Z,87.02
2019-04-25T01:16:41.763Z,86.63
2019-04-25T01:17:41.311Z,86.35
2019-04-25T01:19:34.422Z,85.58
2019-04-25T01:20:34.487Z,85.68
2019-04-25T01:22:26.533Z,86.25
2019-04-25T01:23:26.539Z,86.16
2019-04-25T01:25:19.449Z,85.77
2019-04-25T01:26:19.459Z,86.06
2019-04-25T01:28:13.227Z,86.92
2019-04-25T01:29:13.563Z,86.40
2019-04-25T01:31:05.287Z,86.78
2019-04-25T01:32:05.298Z,86.88
2019-04-25T01:33:58.216Z,87.35
2019-04-25T01:35:00.133Z,87.64
2019-04-25T01:36:51.132Z,87.64
2019-04-25T01:37:51.180Z,87.93
2019-04-25T01:39:44.243Z,87.74
2019-04-25T01:40:44.050Z,87.45
2019-04-25T01:42:36.968Z,88.02
2019-04-25T01:43:36.969Z,87.93
2019-04-25T01:45:29.877Z,88.31
2019-04-25T01:46:29.888Z,87.93
2019-04-25T01:48:23.432Z,87.35
2019-04-25T01:49:23.917Z,87.83
2019-04-25T01:51:15.714Z,87.54
2019-04-25T01:52:15.726Z,87.54
2019-04-25T01:54:08.641Z,87.16
2019-04-25T01:55:08.647Z,88.12
2019-04-25T01:57:01.585Z,88.59
2019-04-25T01:58:01.563Z,88.45
2019-04-25T01:59:55.424Z,88.26
2019-04-25T02:00:56.045Z,88.88
2019-04-25T02:02:47.395Z,88.50
2019-04-25T02:03:47.399Z,88.88
2019-04-25T02:05:40.306Z,88.12
2019-04-25T02:06:40.317Z,87.74
2019-04-25T02:08:33.971Z,88.21
2019-04-25T02:09:33.705Z,87.74
2019-04-25T02:11:26.141Z,87.83
2019-04-25T02:12:26.152Z,87.35
2019-04-25T02:14:19.066Z,87.74
2019-04-25T02:15:19.068Z,87.64
2019-04-25T02:17:11.975Z,87.50
2019-04-25T02:18:13.402Z,87.98
2019-04-25T02:20:04.900Z,88.26
2019-04-25T02:21:04.923Z,88.26
2019-04-25T02:22:57.953Z,88.26
2019-04-25T02:23:58.157Z,87.60
2019-04-25T02:25:50.728Z,88.17
2019-04-25T02:26:50.736Z,88.36
2019-04-25T02:28:43.800Z,87.31
2019-04-25T02:29:44.775Z,87.31
2019-04-25T02:31:36.563Z,87.60
2019-04-25T02:32:37.097Z,87.60
2019-04-25T02:34:29.480Z,86.93
2019-04-25T02:35:29.486Z,86.83
2019-04-25T02:37:25.290Z,86.07
2019-04-25T02:38:24.343Z,87.31
2019-04-25T02:40:15.317Z,87.40
2019-04-25T02:41:15.319Z,87.40
2019-04-25T02:43:08.429Z,87.40
2019-04-25T02:44:10.116Z,87.60
2019-04-25T02:46:02.207Z,87.02
2019-04-25T02:47:03.295Z,87.12
2019-04-25T02:48:56.172Z,87.02
2019-04-25T02:49:55.809Z,86.26
2019-04-25T02:51:46.974Z,86.36
2019-04-25T02:52:46.984Z,86.83
2019-04-25T02:54:39.898Z,86.65
2019-04-25T02:55:39.904Z,86.55
2019-04-25T02:57:34.544Z,85.41
2019-04-25T02:58:34.220Z,85.41
2019-04-25T03:00:25.733Z,85.69
2019-04-25T03:01:26.278Z,86.16
2019-04-25T03:03:18.642Z,86.26
2019-04-25T03:04:18.653Z,86.65
2019-04-25T03:06:11.612Z,86.45
2019-04-25T03:07:11.719Z,86.36
2019-04-25T03:09:06.448Z,86.60
2019-04-25T03:10:07.683Z,86.79
2019-04-25T03:11:58.743Z,86.88
2019-04-25T03:12:59.042Z,86.51
2019-04-25T03:14:50.312Z,87.02
2019-04-25T03:15:52.704Z,86.65
2019-04-25T03:17:44.387Z,86.36
2019-04-25T03:18:44.332Z,86.16
2019-04-25T03:20:36.154Z,85.97
2019-04-25T03:21:36.157Z,86.16
2019-04-25T03:23:29.060Z,86.22
2019-04-25T03:24:29.070Z,86.41
2019-04-25T03:26:23.313Z,86.98
2019-04-25T03:27:21.990Z,86.79
2019-04-25T03:29:14.896Z,86.55
2019-04-25T03:30:17.877Z,86.55
2019-04-25T03:32:11.793Z,85.41
2019-04-25T03:33:13.025Z,85.50
2019-04-25T03:35:01.303Z,85.31
2019-04-25T03:36:01.534Z,85.64
2019-04-25T03:37:54.458Z,85.84
2019-04-25T03:38:54.151Z,86.12
2019-04-25T03:40:46.567Z,86.12
2019-04-25T03:41:46.573Z,85.93
2019-04-25T03:43:39.480Z,86.12
2019-04-25T03:44:39.492Z,86.12
2019-04-25T03:46:33.373Z,86.22
2019-04-25T03:47:33.224Z,86.12
2019-04-25T03:49:25.309Z,86.98
2019-04-25T03:50:25.320Z,87.07
2019-04-25T03:52:18.230Z,86.60
2019-04-25T03:53:18.232Z,86.03
2019-04-25T03:55:11.144Z,86.32
2019-04-25T03:56:11.150Z,86.22
2019-04-25T03:58:06.665Z,86.51
2019-04-25T03:59:05.165Z,86.69
2019-04-25T04:00:56.989Z,87.65
2019-04-25T04:01:56.983Z,87.36
2019-04-25T04:03:49.890Z,87.84
2019-04-25T04:04:49.901Z,88.31
2019-04-25T04:06:44.121Z,88.22
2019-04-25T04:07:43.485Z,88.22
2019-04-25T04:09:35.719Z,88.31
2019-04-25T04:10:35.730Z,89.17
2019-04-25T04:12:28.646Z,88.89
2019-04-25T04:13:28.646Z,88.60
2019-04-25T04:15:23.167Z,89.17
2019-04-25T04:16:23.167Z,88.79
2019-04-25T04:18:16.239Z,88.51
2019-04-25T04:19:15.732Z,88.51
2019-04-25T04:21:07.390Z,88.51
2019-04-25T04:22:07.394Z,88.51
2019-04-25T04:24:00.716Z,88.51
2019-04-25T04:25:00.305Z,88.79
2019-04-25T04:27:03.452Z,89.07
2019-04-25T04:27:53.787Z,89.22
2019-04-25T04:29:46.120Z,89.13
2019-04-25T04:30:46.131Z,89.55
2019-04-25T04:32:39.041Z,89.36
2019-04-25T04:33:39.045Z,89.55
2019-04-25T04:35:33.521Z,89.61
2019-04-25T04:36:31.959Z,89.84
2019-04-25T04:38:24.862Z,90.12
2019-04-25T04:39:24.872Z,90.31
2019-04-25T04:41:17.881Z,89.98
2019-04-25T04:42:17.976Z,90.84
2019-04-25T04:44:11.899Z,90.36
2019-04-25T04:45:12.415Z,90.84
2019-04-25T04:47:04.607Z,90.79
2019-04-25T04:48:04.612Z,90.75
2019-04-25T04:49:57.517Z,90.50
2019-04-25T04:50:57.527Z,90.31
2019-04-25T04:52:50.435Z,90.22
2019-04-25T04:53:50.437Z,89.94
2019-04-25T04:55:43.348Z,89.84
2019-04-25T04:56:43.820Z,90.12
2019-04-25T04:58:36.256Z,89.84
2019-04-25T04:59:36.266Z,89.84
2019-04-25T05:01:29.173Z,89.75
2019-04-25T05:02:29.178Z,89.65
2019-04-25T05:04:23.767Z,88.89
2019-04-25T05:05:23.525Z,89.03
2019-04-25T05:07:16.225Z,88.07
2019-04-25T05:08:16.436Z,88.26
2019-04-25T05:10:07.912Z,87.79
2019-04-25T05:11:07.922Z,86.74
2019-04-25T05:13:00.835Z,87.02
2019-04-25T05:14:00.836Z,85.83
2019-04-25T05:15:53.749Z,85.45
2019-04-25T05:16:53.752Z,84.88
2019-04-25T05:18:46.654Z,84.59
2019-04-25T05:19:46.666Z,84.59
2019-04-25T05:21:39.574Z,84.01
2019-04-25T05:22:39.582Z,84.20
2019-04-25T05:24:33.894Z,84.30
2019-04-25T05:25:32.500Z,84.01
2019-04-25T05:27:37.497Z,83.39
2019-04-25T05:28:25.420Z,82.43
2019-04-25T05:30:19.143Z,81.96
2019-04-25T05:31:19.278Z,81.01
2019-04-25T05:33:11.742Z,80.62
2019-04-25T05:34:13.463Z,80.72
2019-04-25T05:36:05.963Z,80.53
2019-04-25T05:37:04.665Z,80.57
2019-04-25T05:38:57.571Z,80.19
2019-04-25T05:39:57.579Z,79.71
2019-04-25T05:41:50.493Z,79.71
2019-04-25T05:42:50.505Z,80.38
2019-04-25T05:44:44.044Z,79.23
2019-04-25T05:45:44.011Z,79.43
2019-04-25T05:47:36.337Z,79.80
2019-04-25T05:48:36.336Z,79.71
2019-04-25T05:50:29.245Z,79.67
2019-04-25T05:51:29.258Z,79.67
2019-04-25T05:53:23.832Z,79.86
2019-04-25T05:54:23.097Z,79.90
2019-04-25T05:56:16.471Z,79.80
2019-04-25T05:57:16.528Z,79.71
2019-04-25T05:59:08.000Z,79.80
2019-04-25T06:00:08.011Z,79.71
2019-04-25T06:02:00.930Z,79.14
2019-04-25T06:03:00.930Z,79.43
2019-04-25T06:04:53.838Z,78.66
2019-04-25T06:05:53.849Z,79.23
2019-04-25T06:07:46.765Z,77.45
2019-04-25T06:08:46.770Z,76.12
2019-04-25T06:10:39.679Z,74.63
2019-04-25T06:11:39.690Z,75.05
2019-04-25T06:13:33.341Z,72.50
2019-04-25T06:14:33.373Z,72.06
2019-04-25T06:16:27.010Z,69.51
2019-04-25T06:17:26.005Z,67.05
2019-04-25T06:19:20.726Z,65.62
2019-04-25T06:20:19.276Z,65.26
2019-04-25T06:22:11.409Z,65.46
2019-04-25T06:23:11.423Z,63.96
2019-04-25T06:25:07.987Z,62.52
2019-04-25T06:26:19.241Z,61.98
2019-04-25T06:27:59.226Z,60.72
2019-04-25T06:28:59.605Z,60.92
2019-04-25T06:30:51.198Z,59.96
2019-04-25T06:32:03.361Z,60.47
2019-04-25T06:33:44.196Z,60.60
2019-04-25T06:34:44.419Z,59.92
2019-04-25T06:36:37.075Z,58.13
2019-04-25T06:37:37.086Z,57.10
2019-04-25T06:39:30.023Z,54.41
2019-04-25T06:40:30.730Z,53.83
2019-04-25T06:42:24.589Z,54.05
2019-04-25T06:43:24.618Z,54.27
2019-04-25T06:45:15.893Z,52.25
2019-04-25T06:46:15.903Z,53.02
2019-04-25T06:48:08.831Z,53.09
2019-04-25T06:49:08.845Z,54.43
2019-04-25T06:51:03.109Z,53.88
2019-04-25T06:52:01.788Z,53.69
2019-04-25T06:53:54.717Z,53.21
2019-04-25T06:54:54.731Z,52.25
2019-04-25T06:56:47.659Z,51.86
2019-04-25T06:57:47.671Z,51.98
2019-04-25T06:59:41.505Z,50.99
2019-04-25T07:00:45.566Z,50.99
2019-04-25T07:02:35.046Z,52.06
2019-04-25T07:03:35.348Z,52.22
2019-04-25T07:05:33.855Z,52.89
2019-04-25T07:06:27.228Z,52.97
2019-04-25T07:08:19.426Z,54.69
2019-04-25T07:09:19.431Z,54.57
2019-04-25T07:11:13.900Z,56.46
2019-04-25T07:12:13.490Z,56.85
2019-04-25T07:14:05.285Z,57.90
2019-04-25T07:15:05.563Z,58.10
2019-04-25T07:16:58.224Z,59.03
2019-04-25T07:17:58.235Z,59.25
2019-04-25T07:19:51.149Z,59.25
2019-04-25T07:20:51.167Z,58.87
2019-04-25T07:22:44.093Z,58.00
2019-04-25T07:23:46.293Z,58.39
2019-04-25T07:25:37.019Z,59.06
2019-04-25T07:26:39.609Z,58.10
2019-04-25T07:28:31.237Z,57.90
2019-04-25T07:29:30.530Z,57.90
2019-04-25T07:31:23.367Z,56.40
2019-04-25T07:32:24.642Z,56.78
2019-04-25T07:34:15.810Z,57.45
2019-04-25T07:35:15.823Z,56.49
2019-04-25T07:37:08.746Z,56.78
2019-04-25T07:38:08.756Z,55.44
2019-04-25T07:40:01.683Z,53.80
2019-04-25T07:41:03.354Z,53.70
2019-04-25T07:42:54.703Z,54.12
2019-04-25T07:43:54.617Z,54.77
2019-04-25T07:45:47.529Z,54.47
2019-04-25T07:46:47.545Z,54.28
2019-04-25T07:48:40.699Z,53.52
2019-04-25T07:49:40.905Z,53.03
2019-04-25T07:51:34.621Z,53.90
2019-04-25T07:52:34.620Z,54.09
2019-04-25T07:54:27.507Z,53.32
2019-04-25T07:55:27.467Z,52.46
2019-04-25T07:57:19.255Z,53.32
2019-04-25T07:58:19.268Z,52.84
2019-04-25T08:00:13.210Z,51.81
2019-04-25T08:01:13.844Z,52.10
2019-04-25T08:03:05.121Z,52.29
2019-04-25T08:04:05.133Z,51.81
2019-04-25T08:05:58.046Z,51.23
2019-04-25T08:06:58.065Z,52.20
2019-04-25T08:08:50.984Z,51.81
2019-04-25T08:09:50.996Z,50.95
2019-04-25T08:11:43.917Z,50.66
2019-04-25T08:12:44.455Z,52.29
2019-04-25T08:14:37.351Z,50.59
2019-04-25T08:15:36.860Z,51.45
2019-04-25T08:17:30.533Z,50.59
2019-04-25T08:18:30.201Z,49.82
2019-04-25T08:20:23.659Z,48.85
2019-04-25T08:21:23.881Z,48.95
2019-04-25T08:23:15.648Z,49.82
2019-04-25T08:24:15.659Z,49.91
2019-04-25T08:26:08.574Z,50.97
2019-04-25T08:27:08.592Z,50.78
2019-04-25T08:29:01.517Z,49.74
2019-04-25T08:30:01.527Z,50.51
2019-04-25T08:31:54.946Z,49.27
2019-04-25T08:32:54.955Z,49.27
2019-04-25T08:34:47.875Z,49.74
2019-04-25T08:36:03.444Z,50.59
2019-04-25T08:37:40.813Z,50.49
2019-04-25T08:38:40.825Z,50.01
2019-04-25T08:40:35.760Z,49.46
2019-04-25T08:41:34.794Z,49.65
2019-04-25T08:43:26.692Z,50.42
2019-04-25T08:44:26.692Z,50.51
2019-04-25T08:46:19.612Z,49.84
2019-04-25T08:47:19.633Z,49.55
2019-04-25T08:49:14.097Z,48.97
2019-04-25T08:50:26.383Z,48.30
2019-04-25T08:52:05.984Z,49.00
2019-04-25T08:53:05.992Z,49.00
2019-04-25T08:54:58.910Z,48.25
2019-04-25T08:55:58.940Z,48.35
2019-04-25T08:57:51.850Z,47.49
2019-04-25T08:59:03.315Z,47.00
2019-04-25T09:00:44.839Z,46.91
2019-04-25T09:01:45.272Z,46.91
2019-04-25T09:03:38.009Z,47.19
2019-04-25T09:04:38.018Z,46.62
2019-04-25T09:06:30.665Z,46.83
2019-04-25T09:07:30.676Z,47.31
2019-04-25T09:09:23.639Z,45.94
2019-04-25T09:10:23.793Z,45.48
2019-04-25T09:12:16.610Z,46.71
2019-04-25T09:13:16.550Z,47.29
2019-04-25T09:15:09.469Z,47.29
2019-04-25T09:16:09.502Z,46.81
2019-04-25T09:18:04.010Z,47.19
2019-04-25T09:19:03.049Z,48.44
2019-04-25T09:20:55.345Z,47.19
2019-04-25T09:21:55.367Z,47.77
2019-04-25T09:23:48.289Z,48.08
2019-04-25T09:24:48.301Z,47.03
2019-04-25T09:26:42.080Z,45.29
2019-04-25T09:27:41.971Z,45.29
2019-04-25T09:29:35.266Z,45.97
2019-04-25T09:30:35.856Z,46.55
2019-04-25T09:32:27.101Z,45.87
2019-04-25T09:33:27.114Z,45.87
2019-04-25T09:35:20.231Z,44.52
2019-04-25T09:36:20.050Z,45.60
2019-04-25T09:38:13.374Z,45.31
2019-04-25T09:39:13.602Z,45.79
2019-04-25T09:41:05.909Z,45.82
2019-04-25T09:42:05.925Z,45.24
2019-04-25T09:43:58.854Z,45.82
2019-04-25T09:44:58.867Z,45.24
2019-04-25T09:46:53.593Z,44.49
2019-04-25T09:47:53.180Z,44.39
2019-04-25T09:49:44.907Z,44.68
2019-04-25T09:50:45.447Z,44.39
2019-04-25T09:52:37.780Z,43.98
2019-04-25T09:53:43.389Z,43.79
2019-04-25T09:55:30.608Z,44.27
2019-04-25T09:56:30.626Z,43.96
2019-04-25T09:58:23.864Z,44.45
2019-04-25T09:59:27.956Z,44.83
2019-04-25T10:01:16.487Z,45.00
2019-04-25T10:02:16.506Z,45.10
2019-04-25T10:04:09.430Z,46.33
2019-04-25T10:05:09.444Z,46.62
2019-04-25T10:07:03.483Z,47.10
2019-04-25T10:08:03.366Z,47.10
2019-04-25T10:09:56.021Z,47.10
2019-04-25T10:10:55.403Z,46.62
2019-04-25T10:12:48.245Z,47.19
2019-04-25T10:13:48.259Z,47.19
2019-04-25T10:15:41.179Z,47.00
2019-04-25T10:16:41.197Z,47.58
2019-04-25T10:18:34.130Z,47.19
2019-04-25T10:19:34.590Z,47.67
2019-04-25T10:21:27.053Z,47.58
2019-04-25T10:22:27.070Z,48.44
2019-04-25T10:24:19.997Z,48.44
2019-04-25T10:25:20.016Z,48.35
2019-04-25T10:27:13.956Z,48.74
2019-04-25T10:28:13.312Z,48.43
2019-04-25T10:30:16.918Z,47.46
2019-04-25T10:31:05.883Z,48.33
2019-04-25T10:32:58.808Z,48.61
2019-04-25T10:33:58.819Z,48.33
2019-04-25T10:35:58.357Z,49.48
2019-04-25T10:36:53.124Z,49.19
2019-04-25T10:39:00.163Z,50.76
2019-04-25T10:39:45.026Z,52.11
2019-04-25T10:41:39.721Z,51.53
2019-04-25T10:42:38.917Z,51.05
2019-04-25T10:44:30.545Z,49.70
2019-04-25T10:45:30.556Z,49.02
2019-04-25T10:47:23.482Z,49.12
2019-04-25T10:48:24.063Z,48.54
2019-04-25T10:50:16.421Z,48.44
2019-04-25T10:51:16.442Z,48.16
2019-04-25T10:53:09.364Z,48.35
2019-04-25T10:54:09.377Z,47.19
2019-04-25T10:56:05.559Z,47.60
2019-04-25T10:57:02.318Z,48.47
2019-04-25T10:58:55.247Z,47.31
2019-04-25T11:00:06.229Z,47.70
2019-04-25T11:01:48.944Z,47.24
2019-04-25T11:02:48.198Z,47.14
2019-04-25T11:04:41.966Z,46.69
2019-04-25T11:05:41.498Z,46.11
2019-04-25T11:07:34.111Z,45.34
2019-04-25T11:08:34.339Z,45.62
2019-04-25T11:10:27.003Z,45.53
2019-04-25T11:11:27.010Z,45.55
2019-04-25T11:13:19.935Z,45.55
2019-04-25T11:14:20.002Z,45.55
2019-04-25T11:16:13.787Z,44.51
2019-04-25T11:17:13.207Z,43.93
2019-04-25T11:19:05.819Z,43.93
2019-04-25T11:20:05.836Z,43.57
2019-04-25T11:21:58.759Z,43.18
2019-04-25T11:22:58.773Z,42.70
2019-04-25T11:24:51.698Z,42.70
2019-04-25T11:25:53.906Z,42.21
2019-04-25T11:27:47.036Z,42.43
2019-04-25T11:28:45.335Z,41.48
2019-04-25T11:30:37.579Z,42.07
2019-04-25T11:31:37.606Z,40.92
2019-04-25T11:33:30.529Z,41.70
2019-04-25T11:34:30.544Z,39.67
2019-04-25T11:36:25.013Z,40.36
2019-04-25T11:37:23.893Z,40.17
2019-04-25T11:39:16.415Z,37.63
2019-04-25T11:40:16.428Z,38.02
2019-04-25T11:42:09.367Z,38.02
2019-04-25T11:43:09.376Z,37.54
2019-04-25T11:45:03.041Z,37.04
2019-04-25T11:46:04.821Z,37.42
2019-04-25T11:47:55.338Z,37.90
2019-04-25T11:48:55.263Z,38.68
2019-04-25T11:50:50.326Z,38.20
2019-04-25T11:51:48.217Z,37.90
2019-04-25T11:53:41.137Z,37.63
2019-04-25T11:54:41.150Z,37.24
2019-04-25T11:56:34.291Z,37.34
2019-04-25T11:57:34.095Z,36.76
2019-04-25T11:59:27.048Z,36.10
2019-04-25T12:00:27.056Z,35.62
2019-04-25T12:02:19.986Z,36.58
2019-04-25T12:03:20.002Z,33.76
2019-04-25T12:05:14.953Z,34.54
2019-04-25T12:06:14.163Z,35.21
2019-04-25T12:08:05.877Z,35.91
2019-04-25T12:09:05.903Z,34.44
2019-04-25T12:10:58.817Z,34.94
2019-04-25T12:11:58.836Z,35.23
2019-04-25T12:13:51.766Z,35.42
2019-04-25T12:14:51.780Z,34.65
2019-04-25T12:16:47.777Z,35.42
2019-04-25T12:17:44.865Z,35.72
2019-04-25T12:19:38.183Z,34.45
2019-04-25T12:20:37.677Z,32.79
2019-04-25T12:22:30.607Z,35.12
2019-04-25T12:23:30.623Z,35.02
2019-04-25T12:25:23.747Z,35.89
2019-04-25T12:26:24.318Z,35.99
2019-04-25T12:28:16.494Z,37.34
2019-04-25T12:29:16.505Z,36.40
2019-04-25T12:31:09.430Z,35.62
2019-04-25T12:32:09.452Z,34.55
2019-04-25T12:34:03.492Z,35.04
2019-04-25T12:35:04.109Z,34.25
2019-04-25T12:36:55.813Z,35.60
2019-04-25T12:37:56.472Z,36.08
2019-04-25T12:39:48.765Z,36.38
2019-04-25T12:40:48.778Z,35.89
2019-04-25T12:42:41.707Z,36.18
2019-04-25T12:43:41.722Z,37.07
2019-04-25T12:45:34.663Z,36.58
2019-04-25T12:46:34.885Z,35.23
2019-04-25T12:48:27.596Z,36.40
2019-04-25T12:49:27.608Z,35.81
2019-04-25T12:51:20.533Z,33.97
2019-04-25T12:52:20.553Z,34.27
2019-04-25T12:54:13.872Z,34.77
2019-04-25T12:55:13.946Z,33.60
2019-04-25T12:57:06.779Z,32.14
2019-04-25T12:58:06.444Z,32.04
2019-04-25T12:59:59.369Z,33.20
2019-04-25T13:01:00.082Z,32.81
2019-04-25T13:02:52.750Z,32.99
2019-04-25T13:03:54.028Z,33.37
2019-04-25T13:05:45.245Z,33.76
2019-04-25T13:06:45.265Z,35.23
2019-04-25T13:08:38.195Z,35.52
2019-04-25T13:09:38.210Z,35.62
2019-04-25T13:11:31.132Z,33.41
2019-04-25T13:12:31.152Z,34.09
2019-04-25T13:14:25.074Z,33.70
2019-04-25T13:15:26.619Z,32.84
2019-04-25T13:17:17.022Z,32.26
2019-04-25T13:18:17.044Z,32.36
2019-04-25T13:20:10.006Z,30.71
2019-04-25T13:21:09.988Z,31.41
2019-04-25T13:23:03.549Z,32.07
2019-04-25T13:24:03.100Z,32.96
2019-04-25T13:25:55.926Z,32.56
2019-04-25T13:26:56.890Z,32.07
2019-04-25T13:28:48.809Z,32.06
2019-04-25T13:29:48.826Z,31.37
2019-04-25T13:31:41.749Z,32.92
2019-04-25T13:32:41.769Z,33.69
2019-04-25T13:34:36.635Z,33.80
2019-04-25T13:35:34.714Z,32.82
2019-04-25T13:37:27.647Z,33.99
2019-04-25T13:38:27.661Z,33.41
2019-04-25T13:40:21.601Z,32.62
2019-04-25T13:41:20.609Z,33.29
2019-04-25T13:43:13.533Z,33.78
2019-04-25T13:44:14.205Z,34.07
2019-04-25T13:46:06.485Z,33.39
2019-04-25T13:47:06.488Z,33.49
2019-04-25T13:48:59.416Z,33.97
2019-04-25T13:49:59.429Z,32.62
2019-04-25T13:51:52.356Z,32.31
2019-04-25T13:52:53.337Z,32.79
2019-04-25T13:54:45.305Z,33.95
2019-04-25T13:55:45.319Z,33.95
2019-04-25T13:57:38.248Z,34.05
2019-04-25T13:58:38.264Z,33.18
2019-04-25T14:00:31.185Z,33.76
2019-04-25T14:01:31.815Z,33.78
2019-04-25T14:03:24.975Z,32.91
2019-04-25T14:04:25.443Z,32.81
2019-04-25T14:06:17.072Z,32.99
2019-04-25T14:07:17.093Z,32.99
2019-04-25T14:09:10.124Z,33.09
2019-04-25T14:10:10.137Z,33.47
2019-04-25T14:12:04.005Z,33.28
2019-04-25T14:13:03.494Z,33.09
2019-04-25T14:14:56.009Z,33.09
2019-04-25T14:15:56.025Z,35.10
2019-04-25T14:17:48.955Z,34.25
2019-04-25T14:18:48.968Z,34.44
2019-04-25T14:20:41.890Z,34.25
2019-04-25T14:21:43.353Z,34.25
2019-04-25T14:23:35.750Z,33.57
2019-04-25T14:24:35.860Z,32.79
2019-04-25T14:26:27.779Z,32.89
2019-04-25T14:27:28.050Z,32.70
2019-04-25T14:29:21.462Z,33.18
2019-04-25T14:30:20.962Z,32.71
2019-04-25T14:32:13.666Z,32.91
2019-04-25T14:33:13.774Z,33.20
2019-04-25T14:35:06.616Z,33.22
2019-04-25T14:36:06.640Z,32.73
2019-04-25T14:37:59.565Z,32.54
2019-04-25T14:38:59.578Z,32.44
2019-04-25T14:40:52.508Z,32.54
2019-04-25T14:41:52.570Z,33.02
2019-04-25T14:43:46.487Z,32.84
2019-04-25T14:44:45.473Z,32.64
2019-04-25T14:46:38.398Z,33.60
2019-04-25T14:47:38.420Z,33.89
2019-04-25T14:49:31.358Z,35.33
2019-04-25T14:50:31.868Z,34.84
2019-04-25T14:52:24.523Z,34.65
2019-04-25T14:53:24.398Z,35.23
2019-04-25T14:55:17.239Z,35.70
2019-04-25T14:56:17.257Z,35.80
2019-04-25T14:58:10.185Z,35.70
2019-04-25T14:59:10.260Z,36.08
2019-04-25T15:01:03.126Z,36.38
2019-04-25T15:02:03.145Z,36.57
2019-04-25T15:03:56.076Z,36.18
2019-04-25T15:04:56.090Z,36.10
2019-04-25T15:06:49.018Z,36.57
2019-04-25T15:07:49.038Z,36.98
2019-04-25T15:09:41.968Z,35.72
2019-04-25T15:10:41.990Z,35.52
2019-04-25T15:12:34.908Z,36.80
2019-04-25T15:13:35.263Z,36.02
2019-04-25T15:15:29.298Z,36.41
2019-04-25T15:16:29.053Z,34.86
2019-04-25T15:18:21.320Z,34.57
2019-04-25T15:19:21.332Z,35.15
2019-04-25T15:21:14.242Z,34.47
2019-04-25T15:22:14.262Z,34.77
2019-04-25T15:24:07.196Z,35.05
2019-04-25T15:25:07.209Z,34.49
2019-04-25T15:27:00.141Z,33.72
2019-04-25T15:28:00.160Z,33.62
2019-04-25T15:29:53.091Z,33.33
2019-04-25T15:30:53.332Z,33.23
2019-04-25T15:32:46.033Z,33.51
2019-04-25T15:33:46.055Z,33.70
2019-04-25T15:35:38.986Z,34.77
2019-04-25T15:36:39.117Z,33.91
2019-04-25T15:38:31.945Z,33.60
2019-04-25T15:39:31.947Z,34.11
2019-04-25T15:41:26.199Z,34.20
2019-04-25T15:42:26.220Z,34.30
2019-04-25T15:44:18.317Z,34.28
2019-04-25T15:45:18.333Z,34.09
2019-04-25T15:47:11.261Z,34.19
2019-04-25T15:48:11.280Z,33.99
2019-04-25T15:50:04.211Z,34.47
2019-04-25T15:51:04.228Z,34.57
2019-04-25T15:52:57.151Z,34.75
2019-04-25T15:53:57.194Z,34.45
2019-04-25T15:55:50.100Z,34.57
2019-04-25T15:56:50.117Z,35.25
2019-04-25T15:58:43.039Z,34.65
2019-04-25T15:59:43.059Z,35.04
2019-04-25T16:01:36.644Z,35.52
2019-04-25T16:02:36.007Z,35.33
2019-04-25T16:04:28.939Z,35.72
2019-04-25T16:05:29.925Z,36.30
2019-04-25T16:07:21.905Z,35.62
2019-04-25T16:08:21.927Z,35.41
2019-04-25T16:10:15.348Z,35.60
2019-04-25T16:11:15.381Z,35.70
2019-04-25T16:13:08.284Z,36.38
2019-04-25T16:14:08.309Z,36.38
2019-04-25T16:16:01.240Z,36.86
2019-04-25T16:17:01.341Z,36.66
2019-04-25T16:18:54.175Z,36.86
2019-04-25T16:19:54.193Z,36.38
2019-04-25T16:21:47.120Z,37.44
2019-04-25T16:22:47.134Z,36.57
2019-04-25T16:24:40.964Z,36.47
2019-04-25T16:25:40.085Z,36.66
2019-04-25T16:27:33.015Z,36.66
2019-04-25T16:28:33.865Z,36.96
2019-04-25T16:30:26.101Z,36.86
2019-04-25T16:31:26.112Z,37.15
2019-04-25T16:33:19.036Z,37.15
2019-04-25T16:34:19.054Z,37.05
2019-04-25T16:36:11.987Z,37.34
2019-04-25T16:37:11.999Z,37.71
2019-04-25T16:39:04.933Z,37.73
2019-04-25T16:40:04.947Z,37.42
2019-04-25T16:41:57.872Z,37.82
2019-04-25T16:42:57.884Z,38.50
2019-04-25T16:44:50.809Z,37.34
2019-04-25T16:45:50.827Z,37.82
2019-04-25T16:47:43.800Z,37.92
2019-04-25T16:48:43.836Z,37.34
2019-04-25T16:50:36.694Z,37.54
2019-04-25T16:51:36.709Z,37.73
2019-04-25T16:53:30.310Z,37.54
2019-04-25T16:54:30.404Z,37.75
2019-04-25T16:56:22.577Z,37.54
2019-04-25T16:57:22.593Z,37.94
2019-04-25T16:59:15.515Z,37.55
2019-04-25T17:00:15.534Z,37.07
2019-04-25T17:02:08.463Z,37.65
2019-04-25T17:03:08.471Z,37.65
2019-04-25T17:05:01.401Z,37.09
2019-04-25T17:06:01.421Z,36.90
2019-04-25T17:07:54.344Z,37.11
2019-04-25T17:08:54.373Z,36.52
2019-04-25T17:10:47.290Z,36.62
2019-04-25T17:11:47.303Z,36.43
2019-04-25T17:13:40.230Z,36.04
2019-04-25T17:14:40.251Z,36.43
2019-04-25T17:16:33.177Z,36.24
2019-04-25T17:17:33.747Z,36.72
2019-04-25T17:19:26.117Z,36.52
2019-04-25T17:20:26.137Z,37.21
2019-04-25T17:22:19.068Z,38.07
2019-04-25T17:23:19.083Z,38.46
2019-04-25T17:25:12.007Z,36.33
2019-04-25T17:26:12.027Z,36.43
2019-04-25T17:28:04.958Z,37.01
2019-04-25T17:29:04.989Z,36.91
2019-04-25T17:30:57.903Z,36.91
2019-04-25T17:31:57.924Z,36.83
2019-04-25T17:33:50.843Z,37.32
2019-04-25T17:34:50.861Z,37.41
2019-04-25T17:36:43.795Z,38.48
2019-04-25T17:37:43.809Z,37.23
2019-04-25T17:39:37.508Z,37.41
2019-04-25T17:40:37.599Z,37.41
2019-04-25T17:42:29.691Z,36.83
2019-04-25T17:43:29.694Z,37.23
2019-04-25T17:45:22.621Z,37.03
2019-04-25T17:46:22.648Z,37.40
2019-04-25T17:48:16.092Z,37.30
2019-04-25T17:49:16.083Z,37.40
2019-04-25T17:51:09.012Z,37.21
2019-04-25T17:52:09.027Z,37.38
2019-04-25T17:54:01.948Z,37.79
2019-04-25T17:55:01.974Z,37.59
2019-04-25T17:56:54.899Z,37.30
2019-04-25T17:57:54.916Z,37.30
2019-04-25T17:59:47.836Z,36.91
2019-04-25T18:00:47.858Z,36.91
2019-04-25T18:02:41.407Z,37.28
2019-04-25T18:03:41.844Z,37.57
2019-04-25T18:05:34.198Z,37.48
2019-04-25T18:06:34.376Z,37.19
2019-04-25T18:08:27.182Z,38.15
2019-04-25T18:09:27.185Z,37.19
2019-04-25T18:11:20.110Z,37.09
2019-04-25T18:12:20.131Z,37.75
2019-04-25T18:14:13.064Z,37.55
2019-04-25T18:15:13.235Z,37.75
2019-04-25T18:17:06.008Z,37.46
2019-04-25T18:18:06.015Z,37.46
2019-04-25T18:19:58.936Z,38.33
2019-04-25T18:20:58.957Z,38.23
2019-04-25T18:22:51.925Z,38.62
2019-04-25T18:23:51.898Z,38.81
2019-04-25T18:25:45.822Z,39.59
2019-04-25T18:26:45.836Z,40.46
2019-04-25T18:28:39.459Z,41.24
2019-04-25T18:29:39.482Z,41.91
2019-04-25T18:31:31.698Z,41.91
2019-04-25T18:32:31.717Z,41.91
2019-04-25T18:34:24.659Z,42.08